createdAt,value
2019-02-28T00:01:47.218Z,10.60
2019-02-28T00:04:19.393Z,10.75
2019-02-28T00:06:49.303Z,12.10
2019-02-28T00:09:19.292Z,11.53
2019-02-28T00:11:49.192Z,12.33
2019-02-28T00:14:19.154Z,11.40
2019-02-28T00:16:48.893Z,11.57
2019-02-28T00:19:21.028Z,10.32
2019-02-28T00:21:50.682Z,12.23
2019-02-28T00:24:20.460Z,10.78
2019-02-28T00:26:50.993Z,11.15
2019-02-28T00:29:20.836Z,11.20
2019-02-28T00:31:50.786Z,11.05
2019-02-28T00:34:22.644Z,11.15
2019-02-28T00:36:53.417Z,10.63
2019-02-28T00:39:23.896Z,11.83
2019-02-28T00:41:53.772Z,11.10
2019-02-28T00:44:23.488Z,10.58
2019-02-28T00:46:53.331Z,10.90
2019-02-28T00:49:24.486Z,10.95
2019-02-28T00:51:54.547Z,11.48
2019-02-28T00:54:24.259Z,11.25
2019-02-28T00:56:55.655Z,10.75
2019-02-28T00:59:25.658Z,11.08
2019-02-28T01:01:55.786Z,10.45
2019-02-28T01:04:25.556Z,11.78
2019-02-28T01:06:56.560Z,11.35
2019-02-28T01:09:27.059Z,11.57
2019-02-28T01:11:57.730Z,10.50
2019-02-28T01:14:27.457Z,11.70
2019-02-28T01:16:57.433Z,11.28
2019-02-28T01:19:27.227Z,11.48
2019-02-28T01:21:57.091Z,11.20
2019-02-28T01:24:26.801Z,11.85
2019-02-28T01:26:56.702Z,11.15
2019-02-28T01:29:26.567Z,11.03
2019-02-28T01:31:56.273Z,11.65
2019-02-28T01:34:29.010Z,11.30
2019-02-28T01:36:57.628Z,11.63
2019-02-28T01:39:29.963Z,11.20
2019-02-28T01:41:58.719Z,11.88
2019-02-28T01:44:28.458Z,11.83
2019-02-28T01:46:58.424Z,11.30
2019-02-28T01:49:28.469Z,11.55
2019-02-28T01:52:01.239Z,10.72
2019-02-28T01:54:30.939Z,12.25
2019-02-28T01:57:00.921Z,11.03
2019-02-28T01:59:30.629Z,10.80
2019-02-28T02:02:05.719Z,11.08
2019-02-28T02:04:31.947Z,11.12
2019-02-28T02:07:01.759Z,11.50
2019-02-28T02:09:31.603Z,11.50
2019-02-28T02:12:01.317Z,10.85
2019-02-28T02:14:31.086Z,12.35
2019-02-28T02:17:01.042Z,11.78
2019-02-28T02:19:32.221Z,10.82
2019-02-28T02:22:02.016Z,12.00
2019-02-28T02:24:31.795Z,11.28
2019-02-28T02:27:01.544Z,11.45
2019-02-28T02:29:32.375Z,11.53
2019-02-28T02:32:03.135Z,10.93
2019-02-28T02:34:33.108Z,11.00
2019-02-28T02:37:02.836Z,12.20
2019-02-28T02:39:32.587Z,11.83
2019-02-28T02:42:02.326Z,11.75
2019-02-28T02:44:32.140Z,12.07
2019-02-28T02:47:02.003Z,12.15
2019-02-28T02:49:31.816Z,12.43
2019-02-28T02:52:01.623Z,12.05
2019-02-28T02:54:32.948Z,11.88
2019-02-28T02:57:02.978Z,11.93
2019-02-28T02:59:37.250Z,11.95
2019-02-28T03:02:04.250Z,12.73
2019-02-28T03:04:34.075Z,12.37
2019-02-28T03:07:03.824Z,12.60
2019-02-28T03:09:33.623Z,12.95
2019-02-28T03:12:03.942Z,11.48
2019-02-28T03:14:33.779Z,12.35
2019-02-28T03:17:09.575Z,12.35
2019-02-28T03:19:35.114Z,12.53
2019-02-28T03:22:04.853Z,12.03
2019-02-28T03:24:34.589Z,13.62
2019-02-28T03:27:04.548Z,13.13
2019-02-28T03:29:34.305Z,12.65
2019-02-28T03:32:04.811Z,12.75
2019-02-28T03:34:34.564Z,12.63
2019-02-28T03:37:04.287Z,12.07
2019-02-28T03:39:34.117Z,13.83
2019-02-28T03:42:03.820Z,12.73
2019-02-28T03:44:33.705Z,12.50
2019-02-28T03:47:03.478Z,13.08
2019-02-28T03:49:33.215Z,12.73
2019-02-28T03:52:06.634Z,12.75
2019-02-28T03:54:34.746Z,12.98
2019-02-28T03:57:04.544Z,13.15
2019-02-28T03:59:34.293Z,12.78
2019-02-28T04:02:04.680Z,13.40
2019-02-28T04:04:34.487Z,12.18
2019-02-28T04:07:05.372Z,12.43
2019-02-28T04:09:35.117Z,13.15
2019-02-28T04:12:08.697Z,12.65
2019-02-28T04:14:37.665Z,12.65
2019-02-28T04:17:07.376Z,11.65
2019-02-28T04:19:37.453Z,13.30
2019-02-28T04:22:07.373Z,12.60
2019-02-28T04:24:37.451Z,13.78
2019-02-28T04:27:07.914Z,14.00
2019-02-28T04:29:38.248Z,13.00
2019-02-28T04:32:08.047Z,14.13
2019-02-28T04:34:37.838Z,13.72
2019-02-28T04:37:08.558Z,13.03
2019-02-28T04:39:39.146Z,12.35
2019-02-28T04:42:08.857Z,13.55
2019-02-28T04:44:38.634Z,13.48
2019-02-28T04:47:08.347Z,12.43
2019-02-28T04:49:38.099Z,12.78
2019-02-28T04:52:07.881Z,13.30
2019-02-28T04:54:37.880Z,12.95
2019-02-28T04:57:07.681Z,13.38
2019-02-28T04:59:37.793Z,13.80
2019-02-28T05:02:07.802Z,15.45
2019-02-28T05:04:37.560Z,16.67
2019-02-28T05:07:07.305Z,14.58
2019-02-28T05:09:37.077Z,13.85
2019-02-28T05:12:06.848Z,16.23
2019-02-28T05:14:36.578Z,16.87
2019-02-28T05:17:06.210Z,15.68
2019-02-28T05:19:36.593Z,16.15
2019-02-28T05:22:07.011Z,18.62
2019-02-28T05:24:39.404Z,16.73
2019-02-28T05:27:08.177Z,15.45
2019-02-28T05:29:38.269Z,14.23
2019-02-28T05:32:08.000Z,14.73
2019-02-28T05:34:37.853Z,14.43
2019-02-28T05:37:11.983Z,14.87
2019-02-28T05:39:38.999Z,16.42
2019-02-28T05:42:08.871Z,16.30
2019-02-28T05:44:40.431Z,17.17
2019-02-28T05:47:12.445Z,16.40
2019-02-28T05:49:42.295Z,15.85
2019-02-28T05:52:12.152Z,16.40
2019-02-28T05:54:42.037Z,15.35
2019-02-28T05:57:11.839Z,16.15
2019-02-28T05:59:41.741Z,17.10
2019-02-28T06:02:11.732Z,16.67
2019-02-28T06:04:41.483Z,14.95
2019-02-28T06:07:11.327Z,14.87
2019-02-28T06:09:41.119Z,14.53
2019-02-28T06:12:10.997Z,15.23
2019-02-28T06:14:40.761Z,13.65
2019-02-28T06:17:10.482Z,15.18
2019-02-28T06:19:43.241Z,13.60
2019-02-28T06:22:11.705Z,15.45
2019-02-28T06:24:44.854Z,15.80
2019-02-28T06:27:13.925Z,15.78
2019-02-28T06:29:43.680Z,15.35
2019-02-28T06:32:13.769Z,15.43
2019-02-28T06:34:45.149Z,14.65
2019-02-28T06:37:15.039Z,15.08
2019-02-28T06:39:46.354Z,15.70
2019-02-28T06:42:16.237Z,14.25
2019-02-28T06:44:46.019Z,14.73
2019-02-28T06:47:17.919Z,14.20
2019-02-28T06:49:47.974Z,15.25
2019-02-28T06:52:17.884Z,14.60
2019-02-28T06:54:48.759Z,14.28
2019-02-28T06:57:18.577Z,14.53
2019-02-28T06:59:48.388Z,16.52
2019-02-28T07:02:18.362Z,17.75
2019-02-28T07:04:49.490Z,17.75
2019-02-28T07:07:19.852Z,16.15
2019-02-28T07:09:49.633Z,16.32
2019-02-28T07:12:19.368Z,16.00
2019-02-28T07:14:49.576Z,15.63
2019-02-28T07:17:19.615Z,15.35
2019-02-28T07:19:49.340Z,17.27
2019-02-28T07:22:19.798Z,17.98
2019-02-28T07:24:50.646Z,17.62
2019-02-28T07:27:20.475Z,18.52
2019-02-28T07:29:50.293Z,17.35
2019-02-28T07:32:20.225Z,18.40
2019-02-28T07:34:51.651Z,18.05
2019-02-28T07:37:21.510Z,17.50
2019-02-28T07:39:51.309Z,18.02
2019-02-28T07:42:21.127Z,18.00
2019-02-28T07:44:53.667Z,22.93
2019-02-28T07:47:22.363Z,20.75
2019-02-28T07:49:55.717Z,20.25
2019-02-28T07:52:32.405Z,20.70
2019-02-28T07:54:57.226Z,20.25
2019-02-28T07:57:27.019Z,19.92
2019-02-28T07:59:56.860Z,22.55
2019-02-28T08:02:26.594Z,21.30
2019-02-28T08:04:56.409Z,21.50
2019-02-28T08:07:27.382Z,24.40
2019-02-28T08:09:58.090Z,23.87
2019-02-28T08:12:48.133Z,21.33
2019-02-28T08:15:22.339Z,24.43
2019-02-28T08:17:51.225Z,22.95
2019-02-28T08:20:21.123Z,22.73
2019-02-28T08:22:51.052Z,21.60
2019-02-28T08:25:20.824Z,23.27
2019-02-28T08:27:52.173Z,21.77
2019-02-28T08:30:29.099Z,21.20
2019-02-28T08:32:58.904Z,21.68
2019-02-28T08:35:34.242Z,24.10
2019-02-28T08:38:00.116Z,20.92
2019-02-28T08:40:29.840Z,20.65
2019-02-28T08:42:59.582Z,23.62
2019-02-28T08:45:33.338Z,21.80
2019-02-28T08:48:02.408Z,22.25
2019-02-28T08:50:32.181Z,22.30
2019-02-28T08:53:05.719Z,22.07
2019-02-28T08:55:38.365Z,22.73
2019-02-28T08:58:06.980Z,21.95
2019-02-28T09:00:37.749Z,21.45
2019-02-28T09:03:08.215Z,19.82
2019-02-28T09:05:38.008Z,21.30
2019-02-28T09:08:07.869Z,20.35
2019-02-28T09:10:37.647Z,21.10
2019-02-28T09:13:08.649Z,22.80
2019-02-28T09:15:38.777Z,25.45
2019-02-28T09:18:09.717Z,20.08
2019-02-28T09:20:41.440Z,19.73
2019-02-28T09:23:11.121Z,20.10
2019-02-28T09:25:42.409Z,21.07
2019-02-28T09:28:13.163Z,20.95
2019-02-28T09:30:44.712Z,20.65
2019-02-28T09:33:14.523Z,20.48
2019-02-28T09:35:46.361Z,20.40
2019-02-28T09:38:15.775Z,18.15
2019-02-28T09:40:45.546Z,18.10
2019-02-28T09:43:15.310Z,15.98
2019-02-28T09:45:45.090Z,16.30
2019-02-28T09:48:14.915Z,16.62
2019-02-28T09:50:44.682Z,15.65
2019-02-28T09:53:16.470Z,17.02
2019-02-28T09:55:45.833Z,16.32
2019-02-28T09:58:15.590Z,16.15
2019-02-28T10:00:46.506Z,14.95
2019-02-28T10:03:19.422Z,17.30
2019-02-28T10:05:50.229Z,15.85
2019-02-28T10:08:21.836Z,16.45
2019-02-28T10:10:52.480Z,14.55
2019-02-28T10:13:23.115Z,15.18
2019-02-28T10:15:52.868Z,14.80
2019-02-28T10:18:22.583Z,15.25
2019-02-28T10:20:52.366Z,14.35
2019-02-28T10:23:22.402Z,16.23
2019-02-28T10:25:52.306Z,14.38
2019-02-28T10:28:22.258Z,14.20
2019-02-28T10:30:52.036Z,14.07
2019-02-28T10:33:21.850Z,13.72
2019-02-28T10:35:51.647Z,14.85
2019-02-28T10:38:21.436Z,14.45
2019-02-28T10:40:52.445Z,12.15
2019-02-28T10:43:22.785Z,14.38
2019-02-28T10:45:52.657Z,13.40
2019-02-28T10:48:22.464Z,13.58
2019-02-28T10:50:52.384Z,14.98
2019-02-28T10:53:22.089Z,14.03
2019-02-28T10:55:54.364Z,13.50
2019-02-28T10:58:23.219Z,14.40
2019-02-28T11:00:53.053Z,13.13
2019-02-28T11:03:22.769Z,13.68
2019-02-28T11:05:54.277Z,14.87
2019-02-28T11:08:24.055Z,14.28
2019-02-28T11:10:53.768Z,14.75
2019-02-28T11:13:23.609Z,12.90
2019-02-28T11:15:54.826Z,10.40
2019-02-28T11:18:24.582Z,14.60
2019-02-28T11:20:54.304Z,13.30
2019-02-28T11:23:25.592Z,12.53
2019-02-28T11:25:55.625Z,9.03
2019-02-28T11:28:28.296Z,12.88
2019-02-28T11:30:56.887Z,13.28
2019-02-28T11:33:26.663Z,12.37
2019-02-28T11:35:59.095Z,12.13
2019-02-28T11:38:27.942Z,11.75
2019-02-28T11:40:57.767Z,11.93
2019-02-28T11:43:29.230Z,12.03
2019-02-28T11:46:00.908Z,13.28
2019-02-28T11:48:31.992Z,11.50
2019-02-28T11:51:01.912Z,10.13
2019-02-28T11:53:31.799Z,11.65
2019-02-28T11:56:01.552Z,11.78
2019-02-28T11:58:31.894Z,12.25
2019-02-28T12:01:02.967Z,12.73
2019-02-28T12:03:35.555Z,11.95
2019-02-28T12:06:06.949Z,10.32
2019-02-28T12:08:36.981Z,11.20
2019-02-28T12:11:06.829Z,11.50
2019-02-28T12:13:36.616Z,12.20
2019-02-28T12:16:06.423Z,11.80
2019-02-28T12:18:40.002Z,10.88
2019-02-28T12:21:08.769Z,10.63
2019-02-28T12:23:38.628Z,11.78
2019-02-28T12:26:08.411Z,11.43
2019-02-28T12:28:39.076Z,10.35
2019-02-28T12:31:09.438Z,10.55
2019-02-28T12:33:39.217Z,9.95
2019-02-28T12:36:11.317Z,11.60
2019-02-28T12:38:41.117Z,11.63
2019-02-28T12:41:10.978Z,11.90
2019-02-28T12:43:41.468Z,11.90
2019-02-28T12:46:13.276Z,12.25
2019-02-28T12:48:45.566Z,11.80
2019-02-28T12:51:14.505Z,11.20
2019-02-28T12:53:45.916Z,11.05
2019-02-28T12:56:15.713Z,11.90
2019-02-28T12:58:45.545Z,10.23
2019-02-28T13:01:15.293Z,11.55
2019-02-28T13:03:45.016Z,10.88
2019-02-28T13:06:14.766Z,11.05
2019-02-28T13:08:45.677Z,12.13
2019-02-28T13:11:16.044Z,10.68
2019-02-28T13:13:46.459Z,11.08
2019-02-28T13:16:17.438Z,12.13
2019-02-28T13:18:47.658Z,10.53
2019-02-28T13:21:17.949Z,9.23
2019-02-28T13:23:47.763Z,10.55
2019-02-28T13:26:17.541Z,11.35
2019-02-28T13:28:47.294Z,11.53
2019-02-28T13:31:16.999Z,13.38
2019-02-28T13:33:48.556Z,9.80
2019-02-28T13:36:21.551Z,11.38
2019-02-28T13:38:54.699Z,11.45
2019-02-28T13:41:22.054Z,11.22
2019-02-28T13:43:54.720Z,12.45
2019-02-28T13:46:24.294Z,12.35
2019-02-28T13:48:54.678Z,11.45
2019-02-28T13:51:24.787Z,10.20
2019-02-28T13:53:54.560Z,12.82
2019-02-28T13:56:24.262Z,11.95
2019-02-28T13:58:57.362Z,10.18
2019-02-28T14:01:25.643Z,13.48
2019-02-28T14:03:55.552Z,12.33
2019-02-28T14:06:25.451Z,12.28
2019-02-28T14:08:55.191Z,12.28
2019-02-28T14:11:25.901Z,12.47
2019-02-28T14:13:55.817Z,12.78
2019-02-28T14:16:26.960Z,12.05
2019-02-28T14:18:57.179Z,13.40
2019-02-28T14:21:26.985Z,12.50
2019-02-28T14:23:56.852Z,12.88
2019-02-28T14:26:26.742Z,12.30
2019-02-28T14:28:56.490Z,12.50
2019-02-28T14:31:26.285Z,10.43
2019-02-28T14:33:56.156Z,12.13
2019-02-28T14:36:25.940Z,12.73
2019-02-28T14:38:55.990Z,13.03
2019-02-28T14:41:28.405Z,11.70
2019-02-28T14:43:57.277Z,11.68
2019-02-28T14:46:27.060Z,10.00
2019-02-28T14:48:57.000Z,11.38
2019-02-28T14:51:28.588Z,11.30
2019-02-28T14:53:58.341Z,13.32
2019-02-28T14:56:30.676Z,12.20
2019-02-28T14:59:00.661Z,11.85
2019-02-28T15:01:30.514Z,12.10
2019-02-28T15:04:02.734Z,9.63
2019-02-28T15:06:32.584Z,10.48
2019-02-28T15:09:04.619Z,11.73
2019-02-28T15:11:43.706Z,11.53
2019-02-28T15:14:14.441Z,10.35
2019-02-28T15:16:44.220Z,10.30
2019-02-28T15:19:14.034Z,10.48
2019-02-28T15:21:43.745Z,10.28
2019-02-28T15:24:13.608Z,9.95
2019-02-28T15:26:43.385Z,10.32
2019-02-28T15:29:13.218Z,9.20
2019-02-28T15:31:43.432Z,9.43
2019-02-28T15:34:14.080Z,8.00
2019-02-28T15:36:44.003Z,8.23
2019-02-28T15:39:17.194Z,7.80
2019-02-28T15:41:47.286Z,7.87
2019-02-28T15:44:17.163Z,7.53
2019-02-28T15:46:47.419Z,6.65
2019-02-28T15:49:18.341Z,7.10
2019-02-28T15:51:48.149Z,6.85
2019-02-28T15:54:17.958Z,6.83
2019-02-28T15:56:47.918Z,7.33
2019-02-28T15:59:17.711Z,7.90
2019-02-28T16:01:47.405Z,7.05
2019-02-28T16:04:17.242Z,7.25
2019-02-28T16:06:46.956Z,7.67
2019-02-28T16:09:18.791Z,7.78
2019-02-28T16:11:49.332Z,7.65
2019-02-28T16:14:19.088Z,7.97
2019-02-28T16:16:48.994Z,7.67
2019-02-28T16:19:21.784Z,8.10
2019-02-28T16:21:50.328Z,7.78
2019-02-28T16:24:20.209Z,6.12
2019-02-28T16:26:50.080Z,7.50
2019-02-28T16:29:20.655Z,8.43
2019-02-28T16:31:51.280Z,8.15
2019-02-28T16:34:21.035Z,6.67
2019-02-28T16:36:50.844Z,7.55
2019-02-28T16:39:21.325Z,7.33
2019-02-28T16:41:51.116Z,8.03
2019-02-28T16:44:20.996Z,6.80
2019-02-28T16:46:50.960Z,7.00
2019-02-28T16:49:20.807Z,5.78
2019-02-28T16:51:50.774Z,7.37
2019-02-28T16:54:22.542Z,7.47
2019-02-28T16:56:52.133Z,7.83
2019-02-28T16:59:21.962Z,7.08
2019-02-28T17:01:54.850Z,7.87
2019-02-28T17:04:23.867Z,8.13
2019-02-28T17:06:55.535Z,8.35
2019-02-28T17:09:30.308Z,8.38
2019-02-28T17:12:00.118Z,8.50
2019-02-28T17:14:30.933Z,8.05
2019-02-28T17:17:05.312Z,8.65
2019-02-28T17:19:35.117Z,9.08
2019-02-28T17:22:05.046Z,9.13
2019-02-28T17:24:35.011Z,8.60
2019-02-28T17:27:07.447Z,9.25
2019-02-28T17:29:39.622Z,8.05
2019-02-28T17:32:09.430Z,8.98
2019-02-28T17:34:39.518Z,9.45
2019-02-28T17:37:09.381Z,10.08
2019-02-28T17:39:39.232Z,9.13
2019-02-28T17:42:14.814Z,9.35
2019-02-28T17:44:42.072Z,9.65
2019-02-28T17:47:16.231Z,10.03
2019-02-28T17:49:47.592Z,9.80
2019-02-28T17:52:24.563Z,10.30
2019-02-28T17:55:08.282Z,9.00
2019-02-28T17:57:41.610Z,9.55
2019-02-28T18:00:21.887Z,10.50
2019-02-28T18:02:59.344Z,11.83
2019-02-28T18:05:33.783Z,10.55
2019-02-28T18:08:07.715Z,9.78
2019-02-28T18:10:39.262Z,10.55
2019-02-28T18:13:16.284Z,12.82
2019-02-28T18:15:49.008Z,11.10
2019-02-28T18:18:29.569Z,11.97
2019-02-28T18:21:17.821Z,10.82
2019-02-28T18:23:49.288Z,10.98
2019-02-28T18:26:20.580Z,11.35
2019-02-28T18:28:54.846Z,10.40
2019-02-28T18:31:23.514Z,11.53
2019-02-28T18:33:55.090Z,11.15
2019-02-28T18:36:29.244Z,11.75
2019-02-28T18:38:59.151Z,11.22
2019-02-28T18:41:29.492Z,10.95
2019-02-28T18:43:59.984Z,11.68
2019-02-28T18:46:31.181Z,11.25
2019-02-28T18:49:01.332Z,11.93
2019-02-28T18:51:32.803Z,11.88
2019-02-28T18:54:03.190Z,10.58
2019-02-28T18:56:33.007Z,11.68
2019-02-28T18:59:03.035Z,10.90
2019-02-28T19:01:32.991Z,11.15
2019-02-28T19:04:02.927Z,11.63
2019-02-28T19:06:32.966Z,11.25
2019-02-28T19:09:04.475Z,10.68
2019-02-28T19:11:35.793Z,11.90
2019-02-28T19:14:05.704Z,10.70
2019-02-28T19:16:35.492Z,10.35
2019-02-28T19:19:05.535Z,10.25
2019-02-28T19:21:35.313Z,10.20
2019-02-28T19:24:05.296Z,9.85
2019-02-28T19:26:35.216Z,9.65
2019-02-28T19:29:05.173Z,9.63
2019-02-28T19:31:34.967Z,9.88
2019-02-28T19:34:04.764Z,10.03
2019-02-28T19:36:34.644Z,10.28
2019-02-28T19:39:06.055Z,10.32
2019-02-28T19:41:37.486Z,8.83
2019-02-28T19:44:07.478Z,9.03
2019-02-28T19:46:37.366Z,9.48
2019-02-28T19:49:07.324Z,7.80
2019-02-28T19:51:40.237Z,6.75
2019-02-28T19:54:10.356Z,6.65
2019-02-28T19:56:40.229Z,5.50
2019-02-28T19:59:10.092Z,7.10
2019-02-28T20:01:40.017Z,7.45
2019-02-28T20:04:09.931Z,6.28
2019-02-28T20:06:39.872Z,6.00
2019-02-28T20:09:10.961Z,5.72
2019-02-28T20:11:41.519Z,5.72
2019-02-28T20:14:11.314Z,4.92
2019-02-28T20:16:41.205Z,5.72
2019-02-28T20:19:11.184Z,3.83
2019-02-28T20:21:41.177Z,3.83
2019-02-28T20:24:12.269Z,3.45
2019-02-28T20:26:42.242Z,3.60
2019-02-28T20:29:12.279Z,3.35
2019-02-28T20:31:42.222Z,3.02
2019-02-28T20:34:12.651Z,3.27
2019-02-28T20:36:43.200Z,3.12
2019-02-28T20:39:15.506Z,3.75
2019-02-28T20:41:45.715Z,3.58
2019-02-28T20:44:15.635Z,2.70
2019-02-28T20:46:46.623Z,3.10
2019-02-28T20:49:16.465Z,3.65
2019-02-28T20:51:54.884Z,3.00
2019-02-28T20:54:18.073Z,3.67
2019-02-28T20:56:47.919Z,3.85
2019-02-28T20:59:17.863Z,3.05
2019-02-28T21:01:49.292Z,3.70
2019-02-28T21:04:19.102Z,3.70
2019-02-28T21:06:48.924Z,3.22
2019-02-28T21:09:21.257Z,3.25
2019-02-28T21:11:51.176Z,2.98
2019-02-28T21:14:21.120Z,3.25
2019-02-28T21:16:51.001Z,3.17
2019-02-28T21:19:20.886Z,3.25
2019-02-28T21:21:51.790Z,3.00
2019-02-28T21:24:21.711Z,4.28
2019-02-28T21:26:51.708Z,3.10
2019-02-28T21:29:21.791Z,2.95
2019-02-28T21:31:51.640Z,3.40
2019-02-28T21:34:21.542Z,3.37
2019-02-28T21:36:52.629Z,3.77
2019-02-28T21:39:22.666Z,4.00
2019-02-28T21:41:53.771Z,3.70
2019-02-28T21:44:23.638Z,3.92
2019-02-28T21:46:53.463Z,4.25
2019-02-28T21:49:23.468Z,3.65
2019-02-28T21:51:53.305Z,3.62
2019-02-28T21:54:24.484Z,4.28
2019-02-28T21:56:54.848Z,4.17
2019-02-28T21:59:24.857Z,3.47
2019-02-28T22:01:54.619Z,3.62
2019-02-28T22:04:24.333Z,3.60
2019-02-28T22:06:54.156Z,3.50
2019-02-28T22:09:23.805Z,3.72
2019-02-28T22:11:53.516Z,4.22
2019-02-28T22:14:23.250Z,3.42
2019-02-28T22:16:52.988Z,3.70
2019-02-28T22:19:22.724Z,3.62
2019-02-28T22:21:53.060Z,3.35
2019-02-28T22:24:22.915Z,2.98
2019-02-28T22:26:52.743Z,3.00
2019-02-28T22:29:22.554Z,3.00
2019-02-28T22:31:53.978Z,3.08
2019-02-28T22:34:25.493Z,2.45
2019-02-28T22:36:55.264Z,3.10
2019-02-28T22:39:25.099Z,3.00
2019-02-28T22:41:54.873Z,3.22
2019-02-28T22:44:24.805Z,2.90
2019-02-28T22:46:54.507Z,2.55
2019-02-28T22:49:24.255Z,2.80
2019-02-28T22:51:53.957Z,2.67
2019-02-28T22:54:23.677Z,2.90
2019-02-28T22:56:53.454Z,2.50
2019-02-28T22:59:23.186Z,2.60
2019-02-28T23:01:54.211Z,2.77
2019-02-28T23:04:24.463Z,2.60
2019-02-28T23:06:54.626Z,2.37
2019-02-28T23:09:24.411Z,2.55
2019-02-28T23:11:54.249Z,2.30
2019-02-28T23:14:24.033Z,2.72
2019-02-28T23:16:53.792Z,2.20
2019-02-28T23:19:23.606Z,2.37
2019-02-28T23:21:53.353Z,2.08
2019-02-28T23:24:23.110Z,2.25
2019-02-28T23:27:06.709Z,1.70
2019-02-28T23:29:36.487Z,1.85
2019-02-28T23:32:24.773Z,2.15
2019-02-28T23:34:54.534Z,2.02
2019-02-28T23:37:24.350Z,2.05
2019-02-28T23:39:54.083Z,1.65
2019-02-28T23:42:23.771Z,2.10
2019-02-28T23:44:53.462Z,1.82
2019-02-28T23:49:46.981Z,1.98
2019-02-28T23:52:16.712Z,1.90
2019-02-28T23:54:46.650Z,2.30
2019-02-28T23:57:16.431Z,2.58
2019-02-28T23:59:46.227Z,2.17
